Time;durP1;ratioP1;P1;durP2;ratioP2;P2;SDS_P1;SDS_P2;PMS_P1;PMS_P2;Temp;Humidity;BMP_temperature;BMP_pressure;BME280_temperature;BME280_humidity;BME280_pressure;Samples;Min_cycle;Max_cycle;Signal;HPM_P1;HPM_P2
2022/11/27 03:02:02;;;;;;;16.83;14.90;;;1.20;99.90;;;;;;5279748;23;20501;-79
2022/11/27 03:04:34;;;;;;;16.00;14.60;;;1.20;99.90;;;;;;4932752;29;20459;-79
2022/11/27 03:07:06;;;;;;;15.83;14.57;;;1.30;99.90;;;;;;4934460;29;20448;-80
2022/11/27 03:09:35;;;;;;;22.53;15.23;;;1.20;99.90;;;;;;4925196;29;20462;-80
2022/11/27 03:12:04;;;;;;;16.27;14.80;;;1.30;99.90;;;;;;4948497;29;20482;-80
2022/11/27 03:14:43;;;;;;;16.70;15.40;;;1.30;99.90;;;;;;4955775;28;20480;-80
2022/11/27 03:17:22;;;;;;;16.83;15.43;;;1.30;99.90;;;;;;4949438;29;20462;-78
2022/11/27 03:19:53;;;;;;;16.43;15.13;;;1.30;99.90;;;;;;4954572;29;20520;-78
2022/11/27 03:22:20;;;;;;;15.97;14.67;;;1.40;99.90;;;;;;4960886;28;20488;-79
2022/11/27 03:24:48;;;;;;;15.10;13.90;;;1.30;99.90;;;;;;4957113;29;20882;-79
2022/11/27 03:27:21;;;;;;;15.77;14.57;;;1.30;99.90;;;;;;4960415;29;20456;-79
2022/11/27 03:29:51;;;;;;;19.43;15.53;;;1.30;99.90;;;;;;4957170;29;20552;-78
2022/11/27 03:32:20;;;;;;;19.60;15.83;;;1.30;99.90;;;;;;4954091;29;20862;-79
2022/11/27 03:34:48;;;;;;;16.97;15.13;;;1.30;99.90;;;;;;4959421;28;20546;-79
2022/11/27 03:37:15;;;;;;;14.67;13.67;;;1.30;99.90;;;;;;4953997;29;20468;-79
2022/11/27 03:39:42;;;;;;;15.87;14.57;;;1.20;99.90;;;;;;4954591;28;20452;-78
2022/11/27 03:42:18;;;;;;;17.87;15.30;;;1.20;99.90;;;;;;4954388;28;20482;-79
2022/11/27 03:44:54;;;;;;;14.80;13.70;;;1.20;99.90;;;;;;4945499;29;20435;-79
2022/11/27 03:47:30;;;;;;;16.53;15.07;;;1.20;99.90;;;;;;4958318;29;20450;-78
2022/11/27 03:50:09;;;;;;;14.63;13.50;;;1.20;99.90;;;;;;4952423;29;20959;-80
2022/11/27 03:52:44;;;;;;;15.20;13.80;;;1.20;99.90;;;;;;4952678;28;20823;-79
2022/11/27 03:55:20;;;;;;;15.10;13.90;;;1.20;99.90;;;;;;4953890;29;20488;-79
2022/11/27 03:57:55;;;;;;;15.20;13.80;;;1.20;99.90;;;;;;4951090;29;20956;-81
2022/11/27 04:00:24;;;;;;;15.07;14.03;;;1.20;99.90;;;;;;4946169;28;20691;-80
2022/11/27 04:02:53;;;;;;;14.77;13.57;;;1.20;99.90;;;;;;4929474;29;20458;-82
2022/11/27 04:05:20;;;;;;;14.17;13.17;;;1.10;99.90;;;;;;4951916;29;20447;-81
2022/11/27 04:07:48;;;;;;;13.97;12.97;;;1.10;99.90;;;;;;4952270;29;20440;-79
2022/11/27 04:10:15;;;;;;;14.23;13.33;;;1.00;99.90;;;;;;4959078;29;20463;-79
2022/11/27 04:12:42;;;;;;;15.13;13.83;;;1.00;99.90;;;;;;4955765;28;20466;-80
2022/11/27 04:15:10;;;;;;;16.57;15.00;;;1.10;99.90;;;;;;4949875;29;20485;-79
2022/11/27 04:17:37;;;;;;;14.57;13.40;;;1.00;99.90;;;;;;4955355;29;20476;-79
2022/11/27 04:20:06;;;;;;;14.67;13.57;;;1.10;99.90;;;;;;4956075;29;20463;-79
2022/11/27 04:22:33;;;;;;;14.77;13.40;;;1.00;99.90;;;;;;4959254;29;20479;-79
2022/11/27 04:25:00;;;;;;;14.23;13.13;;;1.00;99.90;;;;;;4961146;29;20951;-79
2022/11/27 04:27:27;;;;;;;14.60;13.50;;;1.00;99.90;;;;;;4950949;29;20445;-79
2022/11/27 04:29:54;;;;;;;13.77;12.83;;;0.90;99.90;;;;;;4955842;29;20460;-78
2022/11/27 04:32:21;;;;;;;15.27;13.87;;;0.90;99.90;;;;;;4940956;29;20477;-79
2022/11/27 04:34:47;;;;;;;14.70;13.60;;;0.90;99.90;;;;;;4947178;29;20511;-80
2022/11/27 04:37:16;;;;;;;14.97;13.87;;;0.90;99.90;;;;;;4949667;28;20456;-78
2022/11/27 04:39:43;;;;;;;15.00;13.80;;;1.00;99.90;;;;;;4955771;29;20448;-78
2022/11/27 04:42:09;;;;;;;14.43;13.33;;;1.00;99.90;;;;;;4961377;29;20483;-79
2022/11/27 04:44:36;;;;;;;16.37;14.97;;;1.00;99.90;;;;;;4955218;29;20443;-79
2022/11/27 04:47:03;;;;;;;15.83;14.63;;;1.00;99.90;;;;;;4959511;29;20446;-79
2022/11/27 04:49:30;;;;;;;15.60;14.50;;;1.00;99.90;;;;;;4956686;29;20447;-79
2022/11/27 04:51:57;;;;;;;16.50;15.30;;;1.00;99.90;;;;;;4954340;28;20473;-79
2022/11/27 04:54:25;;;;;;;16.60;15.27;;;1.10;99.90;;;;;;4956160;28;21014;-79
2022/11/27 04:56:52;;;;;;;15.60;14.57;;;1.00;99.90;;;;;;4957918;28;20492;-79
2022/11/27 04:59:19;;;;;;;15.70;14.50;;;0.90;99.90;;;;;;4958861;28;20464;-79
2022/11/27 05:01:46;;;;;;;14.83;13.73;;;0.90;99.90;;;;;;4954819;28;20571;-79
2022/11/27 05:04:13;;;;;;;14.90;13.80;;;0.90;99.90;;;;;;4963130;29;20463;-79
2022/11/27 05:06:40;;;;;;;14.53;13.53;;;0.80;99.90;;;;;;4953427;29;20859;-79
2022/11/27 05:09:07;;;;;;;15.67;14.47;;;0.70;99.90;;;;;;4941088;29;20929;-78
2022/11/27 05:11:35;;;;;;;16.10;14.90;;;0.70;99.90;;;;;;4933821;29;20480;-79
2022/11/27 05:14:18;;;;;;;20.13;14.50;;;0.80;99.90;;;;;;4936144;29;20457;-80
2022/11/27 05:16:47;;;;;;;15.13;13.87;;;0.70;99.90;;;;;;4946746;29;20450;-79
2022/11/27 05:19:15;;;;;;;14.90;13.70;;;0.60;99.90;;;;;;4948717;29;20456;-78
2022/11/27 05:21:43;;;;;;;15.07;14.03;;;0.50;99.90;;;;;;4928479;29;20475;-79
2022/11/27 05:24:10;;;;;;;16.13;14.50;;;0.60;99.90;;;;;;4928303;29;20484;-78
2022/11/27 05:26:39;;;;;;;16.80;15.60;;;0.60;99.90;;;;;;4933666;29;20528;-80
2022/11/27 05:29:06;;;;;;;16.00;14.90;;;0.70;99.90;;;;;;4940403;29;20470;-79
2022/11/27 05:31:33;;;;;;;15.93;14.83;;;0.70;99.90;;;;;;4949074;29;20457;-79
2022/11/27 05:34:00;;;;;;;14.10;13.10;;;0.60;99.90;;;;;;4952129;29;20468;-79
2022/11/27 05:36:28;;;;;;;13.90;12.90;;;0.70;99.90;;;;;;4930094;29;20480;-81
2022/11/27 05:38:54;;;;;;;14.40;13.30;;;0.70;99.90;;;;;;4948199;29;20467;-81
2022/11/27 05:41:22;;;;;;;16.93;15.27;;;0.60;99.90;;;;;;4947179;29;20476;-81
2022/11/27 05:43:50;;;;;;;13.80;12.90;;;0.60;99.90;;;;;;4946248;29;20436;-81
2022/11/27 05:46:20;;;;;;;13.07;12.23;;;0.60;99.90;;;;;;4952434;29;20968;-79
2022/11/27 05:48:54;;;;;;;16.63;13.80;;;0.50;99.90;;;;;;4943284;29;20452;-81
2022/11/27 05:51:21;;;;;;;21.57;14.13;;;0.50;99.90;;;;;;4944517;29;21141;-78
2022/11/27 05:53:48;;;;;;;13.93;12.93;;;0.50;99.90;;;;;;4949966;29;20455;-77
2022/11/27 05:56:17;;;;;;;13.53;12.63;;;0.60;99.90;;;;;;4947058;29;20476;-78
2022/11/27 05:58:46;;;;;;;13.23;12.33;;;0.60;99.90;;;;;;4948121;29;20436;-77
2022/11/27 06:01:15;;;;;;;14.07;13.00;;;0.50;99.90;;;;;;4946638;29;20833;-78
2022/11/27 06:03:43;;;;;;;14.07;13.07;;;0.40;99.90;;;;;;4949686;29;20455;-78
2022/11/27 06:06:12;;;;;;;14.90;13.67;;;0.40;99.90;;;;;;4951438;28;20463;-78
2022/11/27 06:08:40;;;;;;;17.40;16.30;;;0.40;99.90;;;;;;4949529;29;20816;-78
2022/11/27 06:11:08;;;;;;;18.00;16.80;;;0.50;99.90;;;;;;4939236;29;20481;-79
2022/11/27 06:13:35;;;;;;;18.17;16.97;;;0.50;99.90;;;;;;4948874;28;20462;-78
2022/11/27 06:16:06;;;;;;;18.20;16.90;;;0.50;99.90;;;;;;4941366;28;20906;-79
2022/11/27 06:18:39;;;;;;;17.53;16.43;;;0.50;99.90;;;;;;4937127;29;20445;-80
2022/11/27 06:21:07;;;;;;;19.27;17.63;;;0.50;99.90;;;;;;4946295;29;20596;-79
2022/11/27 06:23:34;;;;;;;19.17;17.73;;;0.50;99.90;;;;;;4947947;29;20456;-79
2022/11/27 06:26:10;;;;;;;18.93;17.43;;;0.40;99.90;;;;;;4947871;28;20497;-80
2022/11/27 06:28:37;;;;;;;17.43;16.30;;;0.30;99.90;;;;;;4934892;29;20551;-77
2022/11/27 06:31:07;;;;;;;18.10;16.70;;;0.30;99.90;;;;;;4952756;28;20979;-77
2022/11/27 06:33:35;;;;;;;16.93;15.83;;;0.30;99.90;;;;;;4950109;29;20457;-77
2022/11/27 06:36:02;;;;;;;18.23;16.83;;;0.30;99.90;;;;;;4947724;29;20465;-80
2022/11/27 06:38:31;;;;;;;18.03;16.73;;;0.20;99.90;;;;;;4954645;28;20490;-80
2022/11/27 06:41:02;;;;;;;18.27;17.03;;;0.20;99.90;;;;;;4954161;28;20466;-80
2022/11/27 06:43:29;;;;;;;18.83;17.57;;;0.20;99.90;;;;;;4942231;28;21022;-80
2022/11/27 06:46:15;;;;;;;19.20;17.43;;;0.20;99.90;;;;;;4947023;28;20500;-81
2022/11/27 06:48:44;;;;;;;18.37;17.10;;;0.10;99.90;;;;;;4943418;29;20950;-77
2022/11/27 06:51:12;;;;;;;18.50;17.20;;;0.00;99.90;;;;;;4954864;28;20812;-78
2022/11/27 06:53:40;;;;;;;18.17;16.87;;;-0.10;99.90;;;;;;4951759;28;20466;-77
2022/11/27 06:56:09;;;;;;;19.60;18.10;;;-0.10;99.90;;;;;;4953964;28;20813;-77
2022/11/27 06:58:36;;;;;;;17.83;16.63;;;0.00;99.90;;;;;;4953869;29;20455;-77
2022/11/27 07:01:06;;;;;;;18.07;16.70;;;0.00;99.90;;;;;;4952077;29;20540;-77
2022/11/27 07:03:33;;;;;;;18.47;17.07;;;0.10;99.90;;;;;;4951325;28;20449;-81
2022/11/27 07:06:02;;;;;;;18.20;16.80;;;0.10;99.90;;;;;;4953338;28;20494;-80
2022/11/27 07:08:36;;;;;;;18.40;17.10;;;0.10;99.90;;;;;;4937717;29;20456;-82
2022/11/27 07:11:04;;;;;;;18.47;17.17;;;0.10;99.90;;;;;;4918781;29;20484;-76
2022/11/27 07:13:36;;;;;;;19.73;18.23;;;0.10;99.90;;;;;;4943498;29;20478;-83
2022/11/27 07:16:06;;;;;;;18.50;17.20;;;0.20;99.90;;;;;;4946749;29;20444;-79
2022/11/27 07:18:36;;;;;;;18.63;17.13;;;0.20;99.90;;;;;;4944581;29;20472;-79
2022/11/27 07:21:27;;;;;;;18.63;17.33;;;0.20;99.90;;;;;;4938967;29;20466;-79
2022/11/27 07:23:55;;;;;;;17.90;16.60;;;0.30;99.90;;;;;;4941422;28;20447;-81
2022/11/27 07:26:24;;;;;;;18.57;17.27;;;0.30;99.90;;;;;;4943257;28;21052;-81
2022/11/27 07:28:52;;;;;;;18.50;17.20;;;0.40;99.90;;;;;;4944170;29;20458;-79
2022/11/27 07:31:20;;;;;;;18.47;17.17;;;0.40;99.90;;;;;;4946790;28;20467;-78
2022/11/27 07:33:48;;;;;;;18.10;16.73;;;0.50;99.90;;;;;;4948338;29;20442;-80
2022/11/27 07:36:17;;;;;;;18.27;16.93;;;0.40;99.90;;;;;;4952098;29;20444;-80
2022/11/27 07:38:46;;;;;;;17.40;16.27;;;0.50;99.90;;;;;;4953089;28;20436;-80
2022/11/27 07:41:14;;;;;;;18.03;16.73;;;0.50;99.90;;;;;;4937106;28;20479;-79
2022/11/27 07:43:42;;;;;;;17.63;16.40;;;0.50;99.90;;;;;;4949088;29;21004;-77
2022/11/27 07:46:11;;;;;;;18.13;16.73;;;0.60;99.90;;;;;;4945446;28;20483;-80
2022/11/27 07:48:38;;;;;;;17.33;16.13;;;0.70;99.90;;;;;;4950584;29;20453;-79
2022/11/27 07:51:06;;;;;;;17.77;16.53;;;0.70;99.90;;;;;;4945589;29;20471;-80
2022/11/27 07:53:36;;;;;;;17.67;16.37;;;0.80;99.90;;;;;;4948982;29;20461;-79
2022/11/27 07:56:05;;;;;;;17.73;16.50;;;0.70;99.90;;;;;;4932625;29;20453;-80
2022/11/27 07:58:32;;;;;;;18.43;17.20;;;0.70;99.90;;;;;;4930494;29;20517;-80
2022/11/27 08:00:59;;;;;;;17.27;16.17;;;0.70;99.90;;;;;;4932472;29;20555;-80
2022/11/27 08:03:25;;;;;;;17.73;16.43;;;0.80;99.90;;;;;;4930833;29;20460;-80
2022/11/27 08:05:52;;;;;;;18.47;17.00;;;0.90;99.90;;;;;;4937423;29;20496;-80
2022/11/27 08:08:19;;;;;;;18.57;17.17;;;1.00;99.90;;;;;;4947715;29;20440;-79
2022/11/27 08:10:46;;;;;;;17.87;16.67;;;1.00;99.90;;;;;;4939364;29;20478;-82
2022/11/27 08:13:17;;;;;;;18.63;17.30;;;1.40;99.90;;;;;;4952448;28;20452;-80
2022/11/27 08:15:44;;;;;;;17.67;16.47;;;1.60;99.90;;;;;;4926082;29;20445;-78
2022/11/27 08:18:11;;;;;;;17.33;16.13;;;1.80;99.90;;;;;;4936575;29;20424;-78
2022/11/27 08:20:38;;;;;;;17.30;16.07;;;1.90;99.90;;;;;;4934388;29;20462;-78
2022/11/27 08:23:05;;;;;;;17.60;16.40;;;2.00;99.90;;;;;;4936303;29;20935;-78
2022/11/27 08:25:32;;;;;;;17.60;16.30;;;2.30;99.90;;;;;;4934569;29;21022;-78
2022/11/27 08:27:59;;;;;;;17.33;16.13;;;2.50;99.90;;;;;;4938795;29;20252;-77
2022/11/27 08:30:27;;;;;;;16.13;14.90;;;2.70;99.90;;;;;;4931559;29;20206;-78
2022/11/27 08:32:54;;;;;;;14.13;13.13;;;2.80;99.90;;;;;;4924437;29;20313;-77
2022/11/27 08:35:21;;;;;;;16.43;14.90;;;3.00;99.90;;;;;;4940959;29;20209;-77
2022/11/27 08:37:48;;;;;;;14.53;13.43;;;3.10;99.90;;;;;;4953250;28;20202;-78
2022/11/27 08:40:15;;;;;;;16.33;15.00;;;3.20;99.90;;;;;;4949098;29;20207;-78
2022/11/27 08:42:42;;;;;;;17.53;16.33;;;3.20;99.90;;;;;;4953742;28;20218;-78
2022/11/27 08:45:09;;;;;;;16.90;15.60;;;3.30;99.90;;;;;;4953955;29;20218;-78
2022/11/27 08:47:38;;;;;;;16.33;15.13;;;3.40;99.90;;;;;;4950428;29;20202;-78
2022/11/27 08:50:06;;;;;;;16.00;14.70;;;3.50;99.90;;;;;;4950571;29;20206;-78
2022/11/27 08:52:32;;;;;;;15.40;14.30;;;3.40;99.90;;;;;;4951638;29;20223;-79
2022/11/27 08:54:59;;;;;;;15.80;14.70;;;3.30;99.90;;;;;;4946622;29;20701;-78
2022/11/27 08:57:26;;;;;;;15.57;14.47;;;3.10;99.90;;;;;;4950794;28;20192;-78
2022/11/27 08:59:53;;;;;;;15.80;14.63;;;3.00;99.90;;;;;;4956728;28;20203;-78
2022/11/27 09:02:20;;;;;;;15.30;14.20;;;3.10;99.90;;;;;;4954537;28;21008;-78
2022/11/27 09:04:48;;;;;;;16.00;14.80;;;3.30;99.90;;;;;;4948022;29;20206;-78
2022/11/27 09:07:16;;;;;;;14.73;13.50;;;3.40;99.90;;;;;;4954939;29;20226;-78
2022/11/27 09:09:43;;;;;;;14.40;13.30;;;3.60;99.90;;;;;;4943438;28;20674;-78
2022/11/27 09:12:10;;;;;;;14.97;13.73;;;3.60;99.90;;;;;;4951261;29;20255;-78
2022/11/27 09:14:44;;;;;;;15.27;14.13;;;3.60;99.90;;;;;;4944181;28;20195;-77
2022/11/27 09:17:11;;;;;;;16.47;15.17;;;3.80;99.90;;;;;;4910934;29;20221;-77
2022/11/27 09:19:38;;;;;;;15.07;14.07;;;3.70;99.90;;;;;;4896867;29;20401;-77
2022/11/27 09:22:07;;;;;;;15.90;14.80;;;3.70;99.90;;;;;;4898986;29;20209;-77
2022/11/27 09:24:34;;;;;;;17.10;15.90;;;3.70;99.90;;;;;;4895554;29;20288;-78
2022/11/27 09:27:01;;;;;;;17.67;16.30;;;3.80;99.90;;;;;;4889602;29;20293;-77
2022/11/27 09:29:27;;;;;;;16.57;15.27;;;3.90;99.90;;;;;;4886163;29;20200;-78
2022/11/27 09:31:54;;;;;;;17.93;16.53;;;4.20;99.90;;;;;;4897141;29;20233;-78
2022/11/27 09:34:21;;;;;;;18.20;16.80;;;4.10;99.90;;;;;;4897907;29;20229;-77
2022/11/27 09:36:49;;;;;;;17.27;16.07;;;4.10;99.90;;;;;;4899979;29;20228;-78
2022/11/27 09:39:18;;;;;;;16.30;15.20;;;4.30;99.90;;;;;;4885459;29;20265;-78
2022/11/27 09:41:49;;;;;;;16.73;15.53;;;4.50;99.90;;;;;;4886431;29;20584;-77
2022/11/27 09:44:34;;;;;;;16.20;15.07;;;4.60;99.90;;;;;;4892133;29;20212;-78
2022/11/27 09:47:09;;;;;;;15.97;14.83;;;4.60;99.90;;;;;;4889101;29;20589;-77
2022/11/27 09:49:42;;;;;;;15.40;14.40;;;4.70;99.90;;;;;;4884595;29;20700;-77
2022/11/27 09:52:17;;;;;;;16.07;14.87;;;4.70;99.90;;;;;;4886498;29;20699;-76
2022/11/27 09:54:53;;;;;;;16.60;15.40;;;4.60;99.90;;;;;;4882323;29;20190;-76
2022/11/27 09:57:26;;;;;;;16.27;15.07;;;4.50;99.90;;;;;;4889893;29;20256;-83
2022/11/27 09:59:54;;;;;;;16.77;15.50;;;4.60;99.90;;;;;;4889942;29;20211;-79
2022/11/27 10:02:27;;;;;;;16.27;15.17;;;4.50;99.90;;;;;;4894746;29;20276;-82
2022/11/27 10:04:54;;;;;;;16.13;14.93;;;4.60;99.90;;;;;;4890514;29;20671;-79
2022/11/27 10:07:33;;;;;;;16.47;15.17;;;4.60;99.90;;;;;;4876469;29;20261;-79
2022/11/27 10:10:19;;;;;;;15.90;14.70;;;4.70;99.90;;;;;;4891965;29;20206;-79
2022/11/27 10:12:56;;;;;;;15.70;14.50;;;4.80;99.90;;;;;;4880422;29;20217;-80
2022/11/27 10:15:36;;;;;;;15.60;14.50;;;4.80;99.90;;;;;;4883013;29;20673;-80
2022/11/27 10:18:10;;;;;;;16.77;15.57;;;4.80;99.90;;;;;;4883660;29;20202;-80
2022/11/27 10:20:43;;;;;;;16.47;15.30;;;4.80;99.90;;;;;;4879672;29;20240;-80
2022/11/27 10:23:20;;;;;;;16.90;15.63;;;4.80;99.90;;;;;;4876373;29;20207;-80
2022/11/27 10:25:50;;;;;;;16.13;14.93;;;4.80;99.90;;;;;;4877231;29;20236;-80
2022/11/27 10:28:28;;;;;;;16.00;14.80;;;4.90;99.90;;;;;;4877773;29;20193;-80
2022/11/27 10:30:59;;;;;;;16.07;15.00;;;4.90;99.90;;;;;;4875949;29;20201;-80
2022/11/27 10:33:33;;;;;;;16.67;15.37;;;5.00;99.90;;;;;;4875732;29;20957;-80
2022/11/27 10:36:01;;;;;;;16.37;15.27;;;5.00;99.90;;;;;;4879334;29;20226;-78
2022/11/27 10:38:35;;;;;;;16.17;15.07;;;5.10;99.90;;;;;;4872374;29;20206;-78
2022/11/27 10:41:07;;;;;;;15.77;14.67;;;5.20;99.90;;;;;;4885625;29;20208;-79
2022/11/27 10:43:34;;;;;;;15.43;14.43;;;5.20;99.90;;;;;;4898194;29;20211;-78
2022/11/27 10:46:05;;;;;;;15.73;14.53;;;5.20;99.90;;;;;;4892492;29;20341;-79
2022/11/27 10:48:33;;;;;;;15.80;14.70;;;5.20;99.90;;;;;;4898135;29;20199;-78
2022/11/27 10:51:00;;;;;;;15.97;14.87;;;5.20;99.90;;;;;;4891876;29;20218;-78
2022/11/27 10:53:31;;;;;;;17.80;16.33;;;5.20;99.90;;;;;;4877488;29;20223;-78
2022/11/27 10:56:14;;;;;;;17.43;16.03;;;5.10;99.90;;;;;;4874745;29;20650;-79
2022/11/27 10:58:47;;;;;;;16.80;15.50;;;5.10;99.90;;;;;;4876611;29;20273;-78
2022/11/27 11:01:15;;;;;;;16.40;15.10;;;5.00;99.90;;;;;;4866502;29;20202;-79
2022/11/27 11:03:42;;;;;;;16.43;15.23;;;5.00;99.90;;;;;;4862415;29;20202;-79
2022/11/27 11:06:16;;;;;;;16.60;15.40;;;4.90;99.90;;;;;;4864572;29;20221;-79
2022/11/27 11:08:43;;;;;;;16.47;15.37;;;4.80;99.90;;;;;;4861036;29;20221;-80
2022/11/27 11:11:11;;;;;;;16.13;15.03;;;4.70;99.90;;;;;;4906784;29;20243;-78
2022/11/27 11:13:44;;;;;;;15.60;14.50;;;4.70;99.90;;;;;;4887532;29;20201;-77
2022/11/27 11:16:17;;;;;;;16.20;15.10;;;4.70;99.90;;;;;;4876612;29;20226;-78
2022/11/27 11:18:47;;;;;;;15.83;14.60;;;4.70;99.90;;;;;;4894418;29;20200;-77
2022/11/27 11:21:18;;;;;;;16.60;15.20;;;4.70;99.90;;;;;;4892753;29;20206;-77
2022/11/27 11:23:55;;;;;;;15.97;14.87;;;4.70;99.90;;;;;;4883020;29;20209;-79
2022/11/27 11:26:28;;;;;;;16.40;15.27;;;4.80;99.90;;;;;;4887682;29;20227;-79
2022/11/27 11:28:58;;;;;;;16.47;15.27;;;4.90;99.90;;;;;;4890445;29;20650;-79
2022/11/27 11:31:31;;;;;;;16.40;15.20;;;5.00;99.90;;;;;;4888932;29;20252;-79
2022/11/27 11:34:00;;;;;;;16.90;15.70;;;5.10;99.90;;;;;;4893284;29;20250;-77
2022/11/27 11:36:27;;;;;;;16.20;15.10;;;5.10;99.90;;;;;;4888623;29;20273;-76
2022/11/27 11:38:54;;;;;;;16.80;15.60;;;5.20;99.90;;;;;;4888599;29;20209;-77
2022/11/27 11:41:23;;;;;;;16.67;15.47;;;5.30;99.90;;;;;;4880376;29;20206;-77
2022/11/27 11:44:00;;;;;;;16.03;14.93;;;5.30;99.90;;;;;;4891171;29;20212;-79
2022/11/27 11:46:30;;;;;;;15.87;14.77;;;5.40;99.90;;;;;;4872940;29;20594;-79
2022/11/27 11:49:02;;;;;;;15.40;14.40;;;5.50;99.90;;;;;;4878378;29;20284;-78
2022/11/27 11:51:49;;;;;;;14.83;13.90;;;5.60;99.90;;;;;;4888179;29;20206;-79
2022/11/27 11:54:34;;;;;;;15.13;14.03;;;5.70;99.90;;;;;;4889050;29;20216;-79
2022/11/27 11:57:06;;;;;;;15.23;14.23;;;5.90;99.90;;;;;;4889543;29;20218;-79
2022/11/27 11:59:41;;;;;;;15.73;14.63;;;6.00;99.90;;;;;;4882707;29;20206;-79
2022/11/27 12:02:34;;;;;;;15.37;14.33;;;6.00;99.90;;;;;;4890698;29;20567;-80
2022/11/27 12:05:20;;;;;;;14.60;13.60;;;6.10;99.90;;;;;;4874944;29;20673;-79
2022/11/27 12:08:07;;;;;;;14.83;13.73;;;6.10;99.90;;;;;;4883496;29;20214;-77
2022/11/27 12:10:47;;;;;;;14.33;13.33;;;6.10;99.90;;;;;;4881522;29;20549;-79
2022/11/27 12:13:24;;;;;;;14.83;13.73;;;6.10;99.90;;;;;;4891887;29;20210;-79
2022/11/27 12:16:02;;;;;;;14.43;13.43;;;6.30;99.90;;;;;;4887660;29;20245;-79
2022/11/27 12:18:42;;;;;;;15.00;13.90;;;6.40;99.90;;;;;;4890510;29;20707;-79
2022/11/27 12:21:14;;;;;;;15.30;14.27;;;6.60;99.90;;;;;;4898915;29;20211;-78
2022/11/27 12:23:53;;;;;;;17.03;15.73;;;6.80;99.90;;;;;;4892567;29;20261;-79
2022/11/27 12:26:28;;;;;;;17.40;16.00;;;6.80;99.90;;;;;;4895288;29;20233;-80
2022/11/27 12:29:19;;;;;;;17.03;15.83;;;6.80;99.90;;;;;;4894503;29;20204;-79
2022/11/27 12:32:13;;;;;;;16.83;15.53;;;6.80;99.90;;;;;;4883407;29;20918;-80
2022/11/27 12:34:54;;;;;;;16.80;15.60;;;6.80;99.90;;;;;;4878333;29;20219;-77
2022/11/27 12:37:32;;;;;;;17.80;16.43;;;6.80;99.90;;;;;;4894016;29;20205;-77
2022/11/27 12:40:19;;;;;;;16.53;15.17;;;6.80;99.90;;;;;;4879290;29;20212;-79
2022/11/27 12:42:55;;;;;;;16.03;14.80;;;6.80;99.90;;;;;;4874948;29;20203;-78
2022/11/27 12:45:28;;;;;;;16.23;15.00;;;6.80;99.90;;;;;;4881989;29;20739;-79
2022/11/27 12:48:01;;;;;;;15.90;14.60;;;6.80;99.90;;;;;;4883560;29;20215;-78
2022/11/27 12:50:36;;;;;;;15.53;14.33;;;6.80;99.90;;;;;;4884468;29;20237;-78
2022/11/27 12:53:10;;;;;;;16.30;15.00;;;6.80;99.90;;;;;;4890770;29;20212;-78
2022/11/27 12:55:41;;;;;;;15.93;14.80;;;6.80;99.90;;;;;;4888652;29;20293;-77
2022/11/27 12:58:16;;;;;;;15.27;14.10;;;6.90;99.90;;;;;;4890839;29;20187;-77
2022/11/27 13:00:43;;;;;;;16.13;14.93;;;6.90;99.90;;;;;;4892947;29;20211;-77
2022/11/27 13:03:18;;;;;;;16.30;15.03;;;6.90;99.90;;;;;;4889490;29;20198;-77
2022/11/27 13:05:49;;;;;;;16.40;15.10;;;7.00;99.90;;;;;;4890871;29;20579;-80
2022/11/27 13:08:21;;;;;;;16.03;14.83;;;7.00;99.90;;;;;;4887797;29;20231;-79
2022/11/27 13:10:55;;;;;;;16.07;14.97;;;7.10;99.90;;;;;;4899412;29;20203;-78
2022/11/27 13:13:27;;;;;;;15.60;14.53;;;7.10;99.90;;;;;;4887505;29;20212;-77
2022/11/27 13:15:57;;;;;;;14.87;13.77;;;7.30;99.90;;;;;;4895550;29;20230;-77
2022/11/27 13:18:38;;;;;;;15.00;14.00;;;7.40;99.90;;;;;;4891113;29;20212;-77
2022/11/27 13:21:09;;;;;;;15.10;14.00;;;7.50;99.90;;;;;;4893914;29;20291;-77
2022/11/27 13:23:36;;;;;;;15.43;14.23;;;7.50;99.90;;;;;;4886311;29;20229;-78
2022/11/27 13:26:06;;;;;;;15.10;14.10;;;7.60;99.90;;;;;;4881674;29;20308;-78
2022/11/27 13:28:42;;;;;;;15.37;14.27;;;7.50;99.90;;;;;;4895411;29;20227;-77
2022/11/27 13:31:18;;;;;;;14.50;13.60;;;7.60;99.90;;;;;;4893396;29;20218;-78
2022/11/27 13:33:47;;;;;;;14.57;13.63;;;7.60;99.90;;;;;;4893526;29;20219;-78
2022/11/27 13:36:25;;;;;;;14.87;13.87;;;7.60;99.90;;;;;;4894208;29;20231;-78
2022/11/27 13:38:55;;;;;;;14.93;13.90;;;7.60;99.90;;;;;;4896212;29;20219;-77
2022/11/27 13:41:24;;;;;;;14.53;13.57;;;7.60;99.90;;;;;;4888543;29;20280;-78
2022/11/27 13:43:51;;;;;;;15.37;14.20;;;7.60;99.90;;;;;;4900402;29;20215;-77
2022/11/27 13:46:23;;;;;;;15.20;14.20;;;7.60;99.90;;;;;;4896476;29;20228;-77
2022/11/27 13:48:56;;;;;;;14.73;13.63;;;7.60;99.90;;;;;;4898762;29;20225;-78
2022/11/27 13:51:27;;;;;;;14.50;13.40;;;7.60;99.90;;;;;;4896510;29;20201;-78
2022/11/27 13:54:06;;;;;;;14.47;13.47;;;7.50;99.90;;;;;;4903348;29;20725;-78
2022/11/27 13:56:33;;;;;;;13.83;12.93;;;7.50;99.90;;;;;;4894571;29;20228;-78
2022/11/27 13:58:59;;;;;;;14.13;13.13;;;7.50;99.90;;;;;;4899022;29;20220;-78
2022/11/27 14:01:26;;;;;;;14.00;13.00;;;7.50;99.90;;;;;;4904096;29;20202;-77
2022/11/27 14:04:06;;;;;;;13.60;12.80;;;7.50;99.90;;;;;;4899356;29;20216;-78
2022/11/27 14:06:33;;;;;;;14.00;13.10;;;7.50;99.90;;;;;;4894422;29;20229;-78
2022/11/27 14:09:03;;;;;;;13.60;12.60;;;7.40;99.90;;;;;;4899718;29;20240;-78
2022/11/27 14:11:38;;;;;;;13.97;13.07;;;7.40;99.90;;;;;;4884735;29;20208;-78
2022/11/27 14:14:18;;;;;;;13.20;12.40;;;7.40;99.90;;;;;;4892840;29;20201;-78
2022/11/27 14:16:57;;;;;;;13.53;12.63;;;7.40;99.90;;;;;;4895759;29;20240;-79
2022/11/27 14:19:41;;;;;;;13.80;12.80;;;7.30;99.90;;;;;;4888822;29;20257;-77
2022/11/27 14:22:14;;;;;;;13.47;12.57;;;7.30;99.90;;;;;;4893005;29;20219;-78
2022/11/27 14:24:44;;;;;;;13.50;12.60;;;7.30;99.90;;;;;;4890732;29;20779;-78
2022/11/27 14:27:23;;;;;;;13.60;12.60;;;7.30;99.90;;;;;;4893988;29;20224;-78
2022/11/27 14:29:51;;;;;;;13.60;12.70;;;7.20;99.90;;;;;;4888604;29;20209;-78
2022/11/27 14:32:20;;;;;;;14.20;13.20;;;7.20;99.90;;;;;;4895074;29;20212;-78
2022/11/27 14:34:48;;;;;;;13.83;12.93;;;7.20;99.90;;;;;;4888945;29;20658;-77
2022/11/27 14:37:24;;;;;;;14.20;13.20;;;7.10;99.90;;;;;;4897206;29;20208;-78
2022/11/27 14:39:50;;;;;;;13.83;12.93;;;7.10;99.90;;;;;;4892057;29;20287;-78
2022/11/27 14:42:21;;;;;;;14.03;13.00;;;7.10;99.90;;;;;;4899468;29;20400;-78
2022/11/27 14:44:48;;;;;;;13.70;12.80;;;7.10;99.90;;;;;;4885591;29;20201;-77
2022/11/27 14:47:21;;;;;;;13.50;12.60;;;7.10;99.90;;;;;;4880091;29;20229;-77
2022/11/27 14:49:56;;;;;;;14.87;13.73;;;7.10;99.90;;;;;;4889274;29;20207;-77
2022/11/27 14:52:24;;;;;;;14.07;13.07;;;7.00;99.90;;;;;;4898502;29;20192;-78
2022/11/27 14:54:51;;;;;;;14.77;13.63;;;7.00;99.90;;;;;;4898143;29;20215;-78
2022/11/27 14:57:23;;;;;;;14.67;13.57;;;6.90;99.90;;;;;;4898002;29;20208;-77
2022/11/27 15:00:03;;;;;;;14.87;13.77;;;6.90;99.90;;;;;;4893727;29;20198;-78
2022/11/27 15:02:31;;;;;;;13.77;12.87;;;6.90;99.90;;;;;;4883184;29;20207;-77
2022/11/27 15:05:05;;;;;;;14.57;13.57;;;6.80;99.90;;;;;;4887448;29;20216;-78
2022/11/27 15:07:35;;;;;;;14.37;13.33;;;6.70;99.90;;;;;;4885595;29;20211;-78
2022/11/27 15:10:07;;;;;;;13.53;12.50;;;6.70;99.90;;;;;;4895264;29;20219;-78
2022/11/27 15:12:37;;;;;;;13.97;12.97;;;6.60;99.90;;;;;;4901289;29;20195;-78
2022/11/27 15:15:07;;;;;;;13.63;12.73;;;6.60;99.90;;;;;;4887451;29;20242;-78
2022/11/27 15:17:37;;;;;;;14.00;13.00;;;6.50;99.90;;;;;;4918950;23;20267;-79
2022/11/27 15:20:20;;;;;;;14.23;13.23;;;6.50;99.90;;;;;;4892464;29;20222;-79
2022/11/27 15:22:51;;;;;;;14.40;13.30;;;6.50;99.90;;;;;;4891646;29;20222;-79
2022/11/27 15:25:32;;;;;;;14.93;13.90;;;6.40;99.90;;;;;;4892235;29;20207;-81
2022/11/27 15:28:00;;;;;;;14.67;13.57;;;6.40;99.90;;;;;;4899758;29;20668;-80
2022/11/27 15:30:26;;;;;;;14.73;13.63;;;6.40;99.90;;;;;;4901597;29;20224;-80
2022/11/27 15:32:54;;;;;;;15.20;13.93;;;6.30;99.90;;;;;;4898542;29;20211;-81
2022/11/27 15:35:28;;;;;;;13.90;12.80;;;6.30;99.90;;;;;;4906315;29;20210;-80
2022/11/27 15:37:57;;;;;;;13.20;12.30;;;6.30;99.90;;;;;;4908593;29;20774;-80
2022/11/27 15:40:34;;;;;;;14.23;13.03;;;6.30;99.90;;;;;;4905400;29;20206;-79
2022/11/27 15:43:01;;;;;;;13.47;12.47;;;6.30;99.90;;;;;;4912082;29;20673;-80
2022/11/27 15:45:31;;;;;;;13.50;12.60;;;6.30;99.90;;;;;;4897337;29;20285;-79
2022/11/27 15:48:00;;;;;;;13.93;12.83;;;6.20;99.90;;;;;;4906420;29;20737;-80
2022/11/27 15:50:28;;;;;;;13.93;12.83;;;6.20;99.90;;;;;;4909183;29;20723;-80
2022/11/27 15:52:56;;;;;;;13.80;12.77;;;6.10;99.90;;;;;;4901471;29;20207;-78
2022/11/27 15:55:23;;;;;;;14.80;13.50;;;6.10;99.90;;;;;;4908307;29;20214;-79